Time;durP1;ratioP1;P1;durP2;ratioP2;P2;SDS_P1;SDS_P2;PMS_P1;PMS_P2;Temp;Humidity;BMP_temperature;BMP_pressure;BME280_temperature;BME280_humidity;BME280_pressure;Samples;Min_cycle;Max_cycle;Signal;HPM_P1;HPM_P2
2023/07/12 00:09:47;;;;;;;7.22;2.25;;;;;;;30.62;31.76;96709.78;6275215;22;20487;-25
2023/07/12 00:25:41;;;;;;;11.05;2.88;;;;;;;30.52;32.32;96700.41;6275625;22;20091;-25
2023/07/12 00:38:49;;;;;;;9.25;2.50;;;;;;;30.68;31.69;96696.34;6277768;22;20015;-25
2023/07/12 00:54:57;;;;;;;5.60;2.45;;;;;;;30.51;31.66;96671.66;6277729;22;20433;-25
2023/07/12 01:24:17;;;;;;;5.60;2.45;;;;;;;30.19;33.56;96641.31;6277209;22;20010;-25
2023/07/12 01:40:11;;;;;;;5.45;2.85;;;;;;;30.11;33.82;96668.53;6276627;22;20011;-25
2023/07/12 02:09:35;;;;;;;10.60;3.03;;;;;;;30.09;34.54;96681.56;6276391;22;20019;-25
2023/07/12 02:38:54;;;;;;;4.15;2.70;;;;;;;29.90;33.81;96693.75;6276537;22;20011;-25
2023/07/12 02:54:47;;;;;;;4.47;2.80;;;;;;;29.84;34.13;96700.78;6276452;22;20014;-25
2023/07/12 03:24:07;;;;;;;8.00;3.33;;;;;;;29.71;34.00;96734.41;6275948;22;20430;-26
2023/07/12 03:53:58;;;;;;;7.40;2.80;;;;;;;29.83;33.01;96744.75;6275861;22;20017;-25
2023/07/12 04:09:51;;;;;;;5.57;2.50;;;;;;;29.78;33.26;96764.50;6277238;22;20030;-25
2023/07/12 04:39:10;;;;;;;7.93;3.13;;;;;;;29.69;34.96;96762.16;6277723;22;20019;-25
2023/07/12 04:55:04;;;;;;;7.43;3.53;;;;;;;29.72;35.66;96749.91;6277445;22;20014;-25
2023/07/12 05:24:49;;;;;;;6.50;3.40;;;;;;;29.59;37.93;96703.97;6277060;22;20014;-25
2023/07/12 05:54:08;;;;;;;10.35;4.22;;;;;;;29.74;40.57;96689.34;6277247;22;20018;-25
2023/07/12 06:24:06;;;;;;;6.70;3.42;;;;;;;29.88;40.33;96659.25;6276645;22;20077;-25
2023/07/12 06:40:11;;;;;;;8.13;3.03;;;;;;;29.97;40.13;96664.34;6276142;22;20018;-25
2023/07/12 07:09:33;;;;;;;5.90;3.60;;;;;;;30.27;40.01;96675.69;6275968;22;20476;-25
2023/07/12 07:11:59;;;;;;;9.75;3.35;;;;;;;30.22;40.55;96693.38;6276474;22;20381;-26
2023/07/12 07:24:30;;;;;;;9.05;3.67;;;;;;;30.43;41.46;96693.25;6276232;22;20053;-25
2023/07/12 07:54:11;;;;;;;6.60;3.45;;;;;;;30.61;41.09;96702.69;6276012;22;20018;-25
2023/07/12 08:10:04;;;;;;;9.20;3.38;;;;;;;30.66;41.29;96694.13;6275576;22;20073;-25
2023/07/12 08:39:24;;;;;;;7.07;3.65;;;;;;;30.89;40.37;96691.41;6275847;22;20025;-25
2023/07/12 08:55:19;;;;;;;15.15;3.97;;;;;;;30.82;40.27;96750.91;6277478;22;20014;-25
2023/07/12 09:24:50;;;;;;;9.85;3.10;;;;;;;30.94;38.18;96757.66;6277441;22;20010;-25
2023/07/12 09:54:28;;;;;;;18.55;3.70;;;;;;;31.10;38.49;96732.53;6277011;22;20015;-25
2023/07/12 10:24:21;;;;;;;13.25;3.85;;;;;;;31.30;39.27;96742.81;6276712;22;20060;-25
2023/07/12 10:40:32;;;;;;;12.95;4.13;;;;;;;31.33;39.88;96724.91;6276142;22;20072;-24
2023/07/12 11:40:20;;;;;;;14.65;3.80;;;;;;;31.54;34.48;96744.31;6275998;22;20011;-26
2023/07/12 12:09:40;;;;;;;12.68;3.70;;;;;;;31.62;34.50;96717.06;6275029;22;20030;-25
2023/07/12 12:12:07;;;;;;;14.52;3.47;;;;;;;31.66;34.41;96714.63;6276275;22;20425;-25
2023/07/12 12:24:56;;;;;;;18.08;3.88;;;;;;;31.61;34.86;96716.31;6276098;22;20493;-25
2023/07/12 12:41:09;;;;;;;14.43;4.55;;;;;;;31.63;35.61;96698.94;6277920;22;20015;-25
2023/07/12 13:10:28;;;;;;;21.85;3.97;;;;;;;31.60;35.83;96680.41;6276303;22;20381;-25
2023/07/12 13:39:58;;;;;;;11.27;3.72;;;;;;;31.63;35.13;96685.66;6277118;22;20015;-25
2023/07/12 13:55:51;;;;;;;20.42;4.47;;;;;;;31.72;35.35;96654.25;6276970;22;20022;-25
2023/07/12 14:25:16;;;;;;;17.90;3.88;;;;;;;31.72;36.19;96645.84;6276580;22;20014;-25
2023/07/12 14:55:06;;;;;;;16.50;4.38;;;;;;;31.66;35.70;96638.94;6276090;22;20490;-25
2023/07/12 15:11:01;;;;;;;21.10;4.40;;;;;;;31.63;35.19;96634.44;6275824;22;20019;-26
2023/07/12 15:41:25;;;;;;;13.10;4.25;;;;;;;31.68;35.40;96625.84;6275742;22;20102;-26
2023/07/12 15:43:54;;;;;;;18.05;4.47;;;;;;;31.76;35.28;96615.38;6276177;22;20004;-25
2023/07/12 15:57:01;;;;;;;14.30;4.55;;;;;;;31.80;34.99;96608.63;6276257;22;20057;-25
2023/07/12 16:10:08;;;;;;;13.20;5.30;;;;;;;31.64;34.28;96602.31;6278020;22;20087;-26
2023/07/12 16:26:03;;;;;;;16.63;4.60;;;;;;;31.76;33.99;96597.81;6246941;23;20023;-25
2023/07/12 16:55:24;;;;;;;13.73;3.70;;;;;;;31.51;33.43;96588.50;6246518;23;20046;-25
2023/07/12 17:11:23;;;;;;;9.68;3.88;;;;;;;31.77;33.15;96605.63;6261080;22;20120;-25
2023/07/12 17:40:52;;;;;;;8.13;2.72;;;;;;;31.53;30.44;96620.25;6277053;22;20018;-25
2023/07/12 18:10:14;;;;;;;11.90;2.88;;;;;;;31.54;28.86;96601.38;6276793;22;20030;-25
2023/07/12 18:26:10;;;;;;;7.13;2.45;;;;;;;31.38;28.46;96595.06;6276336;22;20017;-25
2023/07/12 18:42:31;;;;;;;7.07;2.33;;;;;;;31.11;29.12;96563.91;6276140;22;20342;-25
2023/07/12 18:55:18;;;;;;;12.48;3.17;;;;;;;31.04;29.25;96545.00;6276415;22;20065;-25
2023/07/12 19:25:18;;;;;;;8.18;2.97;;;;;;;31.00;30.46;96567.81;6276594;22;20011;-25
2023/07/12 19:41:14;;;;;;;7.93;3.30;;;;;;;30.92;30.28;96583.09;6275960;22;20015;-25
2023/07/12 20:10:59;;;;;;;5.60;3.30;;;;;;;30.68;30.91;96570.38;6275883;22;20019;-26
2023/07/12 20:40:22;;;;;;;7.18;3.25;;;;;;;30.73;31.98;96582.72;6275367;22;20093;-26
2023/07/12 20:56:21;;;;;;;6.47;3.10;;;;;;;30.67;31.97;96578.03;6277343;22;20018;-26
2023/07/12 21:25:42;;;;;;;8.40;3.00;;;;;;;30.51;32.18;96559.72;6277351;22;20073;-25
2023/07/12 21:55:25;;;;;;;11.70;2.50;;;;;;;30.46;31.43;96562.69;6276970;22;20046;-26
2023/07/12 22:11:20;;;;;;;6.00;2.17;;;;;;;30.35;31.18;96544.94;6276467;22;20337;-26
2023/07/12 22:40:41;;;;;;;8.57;2.38;;;;;;;30.26;30.09;96528.72;6276623;22;20130;-25
2023/07/12 22:56:33;;;;;;;6.47;2.30;;;;;;;30.46;30.15;96518.66;6276029;22;20014;-25
2023/07/12 23:25:53;;;;;;;4.82;2.30;;;;;;;30.32;29.67;96478.91;6275907;22;20452;-25
2023/07/12 23:41:45;;;;;;;7.10;2.40;;;;;;;30.23;30.67;96471.06;6276249;22;20073;-25
